Time;durP1;ratioP1;P1;durP2;ratioP2;P2;SDS_P1;SDS_P2;PMS_P1;PMS_P2;Temp;Humidity;BMP_temperature;BMP_pressure;BME280_temperature;BME280_humidity;BME280_pressure;Samples;Min_cycle;Max_cycle;Signal;HPM_P1;HPM_P2
2021/07/25 00:01:02;;;;;;;;;;;;;;;23.73;45.85;99719.50;5111594;28;19934;-47
2021/07/25 00:03:28;;;;;;;;;;;;;;;23.86;45.62;99720.75;5111669;28;19955;-50
2021/07/25 00:05:53;;;;;;;;;;;;;;;23.93;45.66;99726.59;5111484;28;19934;-50
2021/07/25 00:08:18;;;;;;;;;;;;;;;23.81;45.58;99729.75;5111458;28;20364;-49
2021/07/25 00:10:47;;;;;;;;;;;;;;;23.72;46.31;99732.28;5111319;28;19919;-47
2021/07/25 00:13:12;;;;;;;;;;;;;;;24.35;44.64;99738.50;5111244;28;19912;-50
2021/07/25 00:15:37;;;;;;;;;;;;;;;24.51;43.99;99741.81;5111343;28;19918;-51
2021/07/25 00:18:03;;;;;;;;;;;;;;;24.73;43.95;99746.63;5111293;28;19918;-50
2021/07/25 00:20:28;;;;;;;;;;;;;;;24.74;43.33;99751.78;5111489;28;20333;-47
2021/07/25 00:22:53;;;;;;;;;;;;;;;24.83;43.23;99740.22;5101954;28;19912;-51
2021/07/25 00:25:19;;;;;;;;;;;;;;;24.90;43.24;99748.78;5091238;28;20033;-49
2021/07/25 00:27:45;;;;;;;;;;;;;;;24.90;43.67;99746.91;5090691;28;20407;-52
2021/07/25 00:30:10;;;;;;;;;;;;;;;24.90;43.70;99743.34;5090844;28;19916;-52
2021/07/25 00:32:36;;;;;;;;;;;;;;;24.89;44.03;99745.28;5091020;28;20004;-51
2021/07/25 00:35:01;;;;;;;;;;;;;;;24.94;43.88;99747.91;5091085;28;20032;-50
2021/07/25 00:37:26;;;;;;;;;;;;;;;24.90;43.99;99746.91;5094381;28;19912;-51
2021/07/25 00:39:52;;;;;;;;;;;;;;;24.86;44.29;99747.78;5094996;28;19912;-51
2021/07/25 00:42:17;;;;;;;;;;;;;;;24.90;43.51;99746.91;5094257;28;19969;-49
2021/07/25 00:44:42;;;;;;;;;;;;;;;24.81;43.66;99731.53;5094203;28;20363;-50
2021/07/25 00:47:07;;;;;;;;;;;;;;;24.85;44.09;99741.53;5093871;28;19912;-52
2021/07/25 00:49:33;;;;;;;;;;;;;;;24.77;44.58;99740.31;5094205;28;19916;-50
2021/07/25 00:51:59;;;;;;;;;;;;;;;24.74;44.43;99735.47;5092991;28;19912;-51
2021/07/25 00:54:24;;;;;;;;;;;;;;;24.74;44.35;99742.81;5094412;28;19938;-48
2021/07/25 00:56:49;;;;;;;;;;;;;;;24.70;44.63;99731.72;5094150;28;19951;-50
2021/07/25 00:59:14;;;;;;;;;;;;;;;24.80;44.27;99732.66;5094386;28;19977;-47
2021/07/25 01:01:40;;;;;;;;;;;;;;;24.74;44.80;99731.94;5093846;28;19950;-49
2021/07/25 01:04:11;;;;;;;;;;;;;;;24.66;45.15;99729.91;5092605;28;19999;-50
2021/07/25 01:06:45;;;;;;;;;;;;;;;24.55;45.41;99731.97;5094134;28;19978;-51
2021/07/25 01:09:37;;;;;;;;;;;;;;;24.45;46.04;99732.91;5093981;28;19919;-50
2021/07/25 01:12:05;;;;;;;;;;;;;;;24.29;46.75;99731.53;5077694;28;19969;-50
2021/07/25 01:14:32;;;;;;;;;;;;;;;24.47;46.45;99735.34;5093771;28;19962;-50
2021/07/25 01:17:16;;;;;;;;;;;;;;;24.31;46.91;99738.31;5093903;28;20371;-51
2021/07/25 01:19:41;;;;;;;;;;;;;;;24.14;47.49;99736.09;5093680;28;19931;-51
2021/07/25 01:22:06;;;;;;;;;;;;;;;24.09;47.82;99735.38;5093838;28;19912;-50
2021/07/25 01:24:31;;;;;;;;;;;;;;;23.69;48.81;99738.28;5093484;28;20368;-50
2021/07/25 01:26:57;;;;;;;;;;;;;;;23.92;48.31;99738.59;5092391;28;19912;-48
2021/07/25 01:29:22;;;;;;;;;;;;;;;24.01;48.31;99739.56;5093607;28;19912;-48
2021/07/25 01:31:47;;;;;;;;;;;;;;;24.02;48.45;99743.88;5093829;28;19913;-51
2021/07/25 01:34:13;;;;;;;;;;;;;;;24.07;48.38;99740.28;5092176;28;20443;-49
2021/07/25 01:36:38;;;;;;;;;;;;;;;24.09;48.44;99749.75;5092517;28;20061;-52
2021/07/25 01:39:03;;;;;;;;;;;;;;;24.04;48.47;99746.31;5093320;28;19919;-51
2021/07/25 01:41:29;;;;;;;;;;;;;;;24.09;48.47;99747.03;5092751;28;20012;-52
2021/07/25 01:43:54;;;;;;;;;;;;;;;24.00;48.81;99755.03;5102814;28;20317;-51
2021/07/25 01:46:19;;;;;;;;;;;;;;;23.96;48.69;99748.56;5113710;28;19999;-52
2021/07/25 01:48:45;;;;;;;;;;;;;;;24.08;48.52;99750.03;5112393;28;19916;-50
2021/07/25 01:51:11;;;;;;;;;;;;;;;24.11;48.38;99752.19;5113635;28;19970;-49
2021/07/25 01:53:36;;;;;;;;;;;;;;;24.02;48.70;99746.59;5113596;28;19922;-48
2021/07/25 01:56:01;;;;;;;;;;;;;;;23.97;48.96;99755.63;5113562;28;20279;-48
2021/07/25 01:58:27;;;;;;;;;;;;;;;23.93;48.99;99751.06;5113663;28;19912;-49
2021/07/25 02:00:52;;;;;;;;;;;;;;;23.84;49.07;99745.47;5113430;28;19911;-50
2021/07/25 02:03:18;;;;;;;;;;;;;;;23.86;49.12;99751.44;5113153;27;20300;-49
2021/07/25 02:05:43;;;;;;;;;;;;;;;23.86;49.04;99750.63;5113361;28;19921;-48
2021/07/25 02:08:08;;;;;;;;;;;;;;;23.89;49.24;99752.75;5113336;28;19912;-51
2021/07/25 02:10:34;;;;;;;;;;;;;;;23.68;49.83;99750.25;5113228;28;19916;-49
2021/07/25 02:12:59;;;;;;;;;;;;;;;23.52;49.87;99756.97;5112852;28;20052;-48
2021/07/25 02:15:24;;;;;;;;;;;;;;;23.41;50.10;99754.34;5113169;28;19994;-50
2021/07/25 02:17:50;;;;;;;;;;;;;;;23.17;50.46;99748.94;5113417;28;19923;-50
2021/07/25 02:20:15;;;;;;;;;;;;;;;23.25;50.38;99758.34;5112519;28;19928;-48
2021/07/25 02:22:40;;;;;;;;;;;;;;;23.27;50.16;99758.06;5113090;28;20023;-52
2021/07/25 02:25:06;;;;;;;;;;;;;;;23.26;50.25;99756.44;5112866;28;19916;-49
2021/07/25 02:27:31;;;;;;;;;;;;;;;22.85;51.19;99760.31;5112868;28;19919;-47
2021/07/25 02:29:56;;;;;;;;;;;;;;;22.44;52.08;99757.91;5112646;28;19920;-47
2021/07/25 02:32:22;;;;;;;;;;;;;;;22.13;52.92;99766.22;5112909;28;19919;-48
2021/07/25 02:34:47;;;;;;;;;;;;;;;22.20;52.63;99760.47;5112750;28;20041;-51
2021/07/25 02:37:14;;;;;;;;;;;;;;;22.34;52.19;99766.94;5112434;28;19915;-50
2021/07/25 02:39:39;;;;;;;;;;;;;;;22.37;52.16;99766.38;5108473;28;19912;-49
2021/07/25 02:42:05;;;;;;;;;;;;;;;22.26;52.30;99772.94;5092478;28;20353;-48
2021/07/25 02:44:30;;;;;;;;;;;;;;;22.41;52.27;99764.72;5106661;28;19916;-49
2021/07/25 02:46:56;;;;;;;;;;;;;;;21.85;53.11;99760.38;5112366;28;19916;-50
2021/07/25 02:49:21;;;;;;;;;;;;;;;21.71;53.62;99764.00;5112566;28;19919;-48
2021/07/25 02:51:47;;;;;;;;;;;;;;;21.70;53.12;99763.16;5112510;28;20002;-50
2021/07/25 02:54:12;;;;;;;;;;;;;;;22.04;52.21;99770.59;5112625;28;19912;-49
2021/07/25 02:56:37;;;;;;;;;;;;;;;22.10;52.34;99772.19;5112474;28;19976;-48
2021/07/25 02:59:02;;;;;;;;;;;;;;;22.22;51.96;99767.25;5111852;28;19919;-48
2021/07/25 03:01:28;;;;;;;;;;;;;;;22.32;51.84;99769.13;5112104;28;19961;-49
2021/07/25 03:03:53;;;;;;;;;;;;;;;22.48;51.08;99772.53;5112019;28;20450;-48
2021/07/25 03:06:18;;;;;;;;;;;;;;;22.08;51.76;99768.94;5112318;28;19912;-47
2021/07/25 03:08:43;;;;;;;;;;;;;;;22.36;51.14;99762.03;5112042;28;19923;-48
2021/07/25 03:11:09;;;;;;;;;;;;;;;22.45;50.85;99764.97;5112274;28;19916;-48
2021/07/25 03:13:34;;;;;;;;;;;;;;;22.45;50.79;99763.06;5112274;28;20372;-48
2021/07/25 03:16:00;;;;;;;;;;;;;;;22.57;50.22;99768.13;5111981;28;19962;-48
2021/07/25 03:18:26;;;;;;;;;;;;;;;22.54;50.54;99776.00;5111827;28;20357;-48
2021/07/25 03:20:51;;;;;;;;;;;;;;;22.60;50.30;99777.63;5111942;28;20411;-49
2021/07/25 03:23:17;;;;;;;;;;;;;;;22.52;50.68;99781.72;5112031;28;19912;-48
2021/07/25 03:25:42;;;;;;;;;;;;;;;22.55;50.38;99778.44;5111943;28;19915;-48
2021/07/25 03:28:07;;;;;;;;;;;;;;;22.61;49.96;99773.78;5111958;28;20324;-50
2021/07/25 03:30:33;;;;;;;;;;;;;;;22.57;50.34;99778.97;5111809;28;19938;-51
2021/07/25 03:32:58;;;;;;;;;;;;;;;22.62;50.18;99780.84;5111868;28;19916;-51
2021/07/25 03:35:24;;;;;;;;;;;;;;;22.71;49.80;99778.34;5111785;28;20012;-51
2021/07/25 03:37:49;;;;;;;;;;;;;;;22.67;50.20;99782.72;5103734;28;19927;-51
2021/07/25 03:40:15;;;;;;;;;;;;;;;22.43;50.63;99778.00;5091390;28;19920;-51
2021/07/25 03:42:40;;;;;;;;;;;;;;;22.56;50.16;99777.38;5091136;28;19911;-48
2021/07/25 03:45:05;;;;;;;;;;;;;;;22.62;49.67;99773.53;5110622;28;20006;-49
2021/07/25 03:47:31;;;;;;;;;;;;;;;22.28;50.22;99776.19;5111273;28;19999;-50
2021/07/25 03:49:57;;;;;;;;;;;;;;;22.54;50.17;99779.56;5110332;28;19923;-48
2021/07/25 03:52:22;;;;;;;;;;;;;;;22.84;49.34;99780.41;5111405;28;19912;-51
2021/07/25 03:54:48;;;;;;;;;;;;;;;23.15;48.51;99772.00;5111309;28;19912;-48
2021/07/25 03:57:13;;;;;;;;;;;;;;;23.48;47.69;99767.59;5111648;28;19911;-50
2021/07/25 03:59:39;;;;;;;;;;;;;;;23.81;47.38;99770.50;5111187;28;19907;-48
2021/07/25 04:02:04;;;;;;;;;;;;;;;24.09;46.75;99771.50;5111660;28;19927;-49
2021/07/25 04:04:29;;;;;;;;;;;;;;;23.64;46.71;99781.81;5111502;28;20345;-51
2021/07/25 04:06:55;;;;;;;;;;;;;;;23.90;46.05;99776.09;5111574;28;19919;-48
2021/07/25 04:09:20;;;;;;;;;;;;;;;23.48;46.90;99777.66;5111216;28;19912;-48
2021/07/25 04:11:49;;;;;;;;;;;;;;;23.45;47.21;99770.88;5113925;28;19983;-50
2021/07/25 04:14:14;;;;;;;;;;;;;;;23.87;46.00;99773.97;5115167;28;19911;-49
2021/07/25 04:16:39;;;;;;;;;;;;;;;24.31;45.01;99770.09;5114808;28;19923;-49
2021/07/25 04:19:04;;;;;;;;;;;;;;;24.44;44.42;99780.25;5115065;28;20351;-48
2021/07/25 04:21:31;;;;;;;;;;;;;;;24.60;44.25;99789.03;5114489;28;19943;-49
2021/07/25 04:23:56;;;;;;;;;;;;;;;24.75;43.32;99796.94;5114431;28;19965;-50
2021/07/25 04:26:21;;;;;;;;;;;;;;;24.92;42.84;99793.69;5114799;28;19916;-50
2021/07/25 04:28:47;;;;;;;;;;;;;;;25.39;42.11;99799.13;5114399;28;19999;-52
2021/07/25 04:31:12;;;;;;;;;;;;;;;25.68;41.34;99749.81;5114368;28;19915;-53
2021/07/25 04:33:39;;;;;;;;;;;;;;;26.14;40.64;99800.66;5114648;28;19912;-49
2021/07/25 04:36:11;;;;;;;;;;;;;;;26.38;39.76;99801.53;5114455;28;19955;-51
2021/07/25 04:38:37;;;;;;;;;;;;;;;26.69;39.21;99802.44;5100413;28;19934;-48
2021/07/25 04:41:02;;;;;;;;;;;;;;;26.58;39.06;99801.06;5093222;28;19912;-49
2021/07/25 04:43:29;;;;;;;;;;;;;;;26.62;38.97;99801.28;5100265;28;20299;-52
2021/07/25 04:46:01;;;;;;;;;;;;;;;25.92;40.08;99806.84;5114749;28;19999;-51
2021/07/25 04:48:35;;;;;;;;;;;;;;;26.02;39.77;99810.47;5114748;28;20474;-49
2021/07/25 04:51:05;;;;;;;;;;;;;;;25.92;39.53;99812.28;5114293;28;19916;-51
2021/07/25 04:53:32;;;;;;;;;;;;;;;26.24;39.07;99818.72;5114412;28;19912;-52
2021/07/25 04:55:58;;;;;;;;;;;;;;;26.28;38.82;99818.91;5114094;28;19916;-51
2021/07/25 04:58:27;;;;;;;;;;;;;;;26.99;37.58;99815.66;5114283;28;19912;-50
2021/07/25 05:00:53;;;;;;;;;;;;;;;26.89;37.25;99814.00;5113891;28;20411;-52
2021/07/25 05:03:19;;;;;;;;;;;;;;;26.28;38.24;99824.38;5112641;28;19916;-50
2021/07/25 05:05:44;;;;;;;;;;;;;;;26.33;38.49;99810.59;5113909;28;19996;-49
2021/07/25 05:08:09;;;;;;;;;;;;;;;26.66;37.79;99805.78;5113734;28;19911;-48
2021/07/25 05:10:35;;;;;;;;;;;;;;;27.02;37.58;99815.84;5113875;28;20088;-50
2021/07/25 05:13:00;;;;;;;;;;;;;;;27.20;37.56;99829.59;5113582;28;19912;-49
2021/07/25 05:15:32;;;;;;;;;;;;;;;27.53;36.69;99824.66;5099318;28;20166;-49
2021/07/25 05:17:57;;;;;;;;;;;;;;;28.00;35.72;99822.25;5093493;28;20357;-52
2021/07/25 05:20:26;;;;;;;;;;;;;;;28.24;35.03;99823.75;5091770;28;19928;-50
2021/07/25 05:22:59;;;;;;;;;;;;;;;29.58;33.05;99828.47;5091584;28;21332;-48
2021/07/25 05:25:24;;;;;;;;;;;;;;;29.10;33.95;99815.88;5092956;28;19919;-47
2021/07/25 05:27:50;;;;;;;;;;;;;;;29.20;33.90;99818.28;5093469;28;19911;-50
2021/07/25 05:30:16;;;;;;;;;;;;;;;29.22;33.61;99816.00;5093219;28;20363;-49
2021/07/25 05:32:42;;;;;;;;;;;;;;;29.53;33.08;99818.50;5093254;28;19912;-50
2021/07/25 05:35:07;;;;;;;;;;;;;;;30.38;32.26;99816.75;5093140;28;19993;-50
2021/07/25 05:37:32;;;;;;;;;;;;;;;30.34;31.67;99815.81;5092973;28;19977;-49
2021/07/25 05:39:58;;;;;;;;;;;;;;;30.22;31.85;99813.78;5093326;28;19916;-48
2021/07/25 05:42:23;;;;;;;;;;;;;;;30.35;31.92;99818.25;5093067;28;20391;-49
2021/07/25 05:44:48;;;;;;;;;;;;;;;30.55;31.73;99822.09;5109903;28;19912;-49
2021/07/25 05:47:13;;;;;;;;;;;;;;;31.09;30.54;99815.81;5112450;28;19923;-50
2021/07/25 05:49:39;;;;;;;;;;;;;;;30.93;30.68;99814.84;5112324;28;20015;-49
2021/07/25 05:52:04;;;;;;;;;;;;;;;30.68;31.17;99822.97;5111953;28;20284;-49
2021/07/25 05:54:29;;;;;;;;;;;;;;;30.56;31.32;99820.19;5112074;28;19982;-49
2021/07/25 05:56:55;;;;;;;;;;;;;;;30.89;31.06;99814.69;5112204;28;20255;-50
2021/07/25 05:59:20;;;;;;;;;;;;;;;31.48;30.30;99821.88;5112153;28;19956;-49
2021/07/25 06:01:45;;;;;;;;;;;;;;;31.58;30.19;99823.34;5112391;28;20028;-49
2021/07/25 06:04:11;;;;;;;;;;;;;;;31.48;30.19;99832.06;5112059;28;19912;-48
2021/07/25 06:06:36;;;;;;;;;;;;;;;31.40;30.12;99822.75;5111780;28;20446;-49
2021/07/25 06:09:03;;;;;;;;;;;;;;;31.54;30.23;99831.50;5112158;28;20395;-49
2021/07/25 06:11:28;;;;;;;;;;;;;;;31.53;30.34;99837.34;5111960;28;20397;-49
2021/07/25 06:13:54;;;;;;;;;;;;;;;31.52;30.17;99830.22;5111846;28;19915;-48
2021/07/25 06:16:19;;;;;;;;;;;;;;;31.53;30.50;99835.41;5111835;28;19912;-50
2021/07/25 06:18:47;;;;;;;;;;;;;;;31.72;30.37;99828.50;5110596;28;19977;-52
2021/07/25 06:21:13;;;;;;;;;;;;;;;31.72;30.24;99826.59;5111896;28;20379;-52
2021/07/25 06:23:38;;;;;;;;;;;;;;;31.90;29.78;99832.63;5112091;28;19980;-49
2021/07/25 06:26:03;;;;;;;;;;;;;;;32.68;28.98;99829.91;5112008;28;20286;-50
2021/07/25 06:31:31;;;;;;;;;;;;;;;32.44;29.27;99850.81;5111699;28;20007;-52
2021/07/25 06:33:56;;;;;;;;;;;;;;;32.61;29.25;99835.19;5111561;28;19911;-50
2021/07/25 06:36:24;;;;;;;;;;;;;;;32.32;29.18;99837.09;5111702;28;19918;-50
2021/07/25 06:38:49;;;;;;;;;;;;;;;32.55;28.58;99829.09;5095500;28;19940;-49
2021/07/25 06:41:15;;;;;;;;;;;;;;;33.61;27.36;99834.34;5090577;28;19952;-48
2021/07/25 06:43:40;;;;;;;;;;;;;;;33.46;27.68;99830.41;5098025;28;19916;-49
2021/07/25 06:46:07;;;;;;;;;;;;;;;33.68;27.71;99831.75;5111031;28;19929;-49
2021/07/25 06:48:32;;;;;;;;;;;;;;;33.66;27.05;99839.59;5110601;28;20357;-50
2021/07/25 06:50:58;;;;;;;;;;;;;;;33.40;27.43;99832.63;5110062;28;19916;-48
2021/07/25 06:53:24;;;;;;;;;;;;;;;34.21;26.84;99832.22;5110375;28;19912;-48
2021/07/25 06:55:50;;;;;;;;;;;;;;;32.50;28.56;99832.91;5085612;28;19912;-50
2021/07/25 06:58:15;;;;;;;;;;;;;;;32.90;28.37;99839.53;5090472;28;19973;-49
2021/07/25 07:00:40;;;;;;;;;;;;;;;33.50;27.28;99837.59;5088361;28;19948;-49
2021/07/25 07:03:06;;;;;;;;;;;;;;;33.96;27.11;99839.91;5070784;28;19965;-49
2021/07/25 07:05:32;;;;;;;;;;;;;;;34.70;26.09;99841.94;5070987;28;19912;-47
2021/07/25 07:07:58;;;;;;;;;;;;;;;34.28;27.09;99834.34;5070869;28;20018;-47
2021/07/25 07:10:25;;;;;;;;;;;;;;;33.53;27.72;99830.59;5070641;28;19917;-50
2021/07/25 07:12:50;;;;;;;;;;;;;;;33.86;27.46;99834.94;5070540;28;19913;-49
2021/07/25 07:15:16;;;;;;;;;;;;;;;33.90;27.70;99835.84;5070498;28;19999;-48
2021/07/25 07:17:41;;;;;;;;;;;;;;;34.54;26.32;99842.00;5069001;28;19913;-50
2021/07/25 07:20:07;;;;;;;;;;;;;;;34.76;25.96;99834.94;5070260;28;20006;-49
2021/07/25 07:22:33;;;;;;;;;;;;;;;34.76;26.33;99834.94;5070595;28;20337;-47
2021/07/25 07:24:58;;;;;;;;;;;;;;;34.93;26.24;99836.47;5069985;28;19918;-50
2021/07/25 07:27:24;;;;;;;;;;;;;;;35.03;25.78;99829.53;5070278;28;19927;-54
2021/07/25 07:29:50;;;;;;;;;;;;;;;35.44;25.55;99835.44;5070228;28;19959;-49
2021/07/25 07:32:15;;;;;;;;;;;;;;;35.65;24.91;99836.97;5070082;28;19913;-48
2021/07/25 07:34:40;;;;;;;;;;;;;;;35.20;24.82;99837.38;5069676;28;20348;-50
2021/07/25 07:37:05;;;;;;;;;;;;;;;34.75;26.16;99835.31;5071194;28;19947;-48
2021/07/25 07:39:31;;;;;;;;;;;;;;;35.04;25.28;99843.00;5090366;28;20002;-48
2021/07/25 07:41:56;;;;;;;;;;;;;;;35.38;25.46;99846.00;5090473;28;20360;-48
2021/07/25 07:44:22;;;;;;;;;;;;;;;35.47;25.54;99839.41;5103810;28;20371;-48
2021/07/25 07:46:47;;;;;;;;;;;;;;;34.40;26.74;99845.25;5109610;28;19916;-50
2021/07/25 07:49:12;;;;;;;;;;;;;;;34.73;25.98;99848.69;5098350;28;19916;-49
2021/07/25 07:51:37;;;;;;;;;;;;;;;34.94;26.24;99840.03;5089513;28;19916;-52
2021/07/25 07:54:03;;;;;;;;;;;;;;;35.27;25.42;99844.22;5089788;28;19919;-51
2021/07/25 07:56:30;;;;;;;;;;;;;;;35.73;25.12;99841.44;5089835;28;20244;-50
2021/07/25 07:58:56;;;;;;;;;;;;;;;35.23;25.29;99855.22;5090086;28;19959;-48
2021/07/25 08:01:21;;;;;;;;;;;;;;;35.31;25.07;99843.09;5090174;28;19951;-51
2021/07/25 08:03:46;;;;;;;;;;;;;;;35.31;25.39;99842.31;5089972;28;19947;-50
2021/07/25 08:06:12;;;;;;;;;;;;;;;35.73;24.01;99833.94;5089919;28;19919;-50
2021/07/25 08:08:37;;;;;;;;;;;;;;;36.05;23.46;99835.59;5090252;28;19912;-50
2021/07/25 08:11:03;;;;;;;;;;;;;;;36.88;22.32;99841.06;5090230;28;19956;-49
2021/07/25 08:13:28;;;;;;;;;;;;;;;35.55;23.01;99839.16;5090743;28;19912;-52
2021/07/25 08:15:53;;;;;;;;;;;;;;;34.75;24.21;99835.31;5090719;28;19935;-54
2021/07/25 08:18:19;;;;;;;;;;;;;;;35.24;24.70;99831.91;5090517;28;19922;-50
2021/07/25 08:20:44;;;;;;;;;;;;;;;35.58;23.97;99826.56;5089951;28;19965;-50
2021/07/25 08:23:09;;;;;;;;;;;;;;;36.15;22.96;99827.44;5089855;28;20468;-48
2021/07/25 08:25:34;;;;;;;;;;;;;;;35.67;22.85;99821.56;5089703;28;19913;-50
2021/07/25 08:28:00;;;;;;;;;;;;;;;35.34;22.97;99827.72;5089489;28;20080;-51
2021/07/25 08:30:27;;;;;;;;;;;;;;;35.29;23.13;99831.63;5089358;28;19916;-50
2021/07/25 08:32:52;;;;;;;;;;;;;;;35.15;23.68;99823.06;5089572;28;19913;-50
2021/07/25 08:35:17;;;;;;;;;;;;;;;35.65;22.47;99820.34;5090040;28;19912;-48
2021/07/25 08:37:43;;;;;;;;;;;;;;;35.08;22.99;99825.69;5090094;28;20364;-50
2021/07/25 08:40:08;;;;;;;;;;;;;;;34.74;24.05;99831.75;5090082;28;19912;-51
2021/07/25 08:42:35;;;;;;;;;;;;;;;35.39;23.95;99832.97;5088084;28;19912;-51
2021/07/25 08:45:01;;;;;;;;;;;;;;;35.23;22.77;99836.66;5108054;28;19912;-50
2021/07/25 08:47:26;;;;;;;;;;;;;;;35.94;21.20;99832.66;5108514;28;19912;-50
2021/07/25 08:49:52;;;;;;;;;;;;;;;35.29;22.46;99830.81;5093870;28;19927;-49
2021/07/25 08:52:19;;;;;;;;;;;;;;;35.33;22.46;99829.72;5089477;28;19920;-38
2021/07/25 08:54:44;;;;;;;;;;;;;;;35.89;22.27;99821.91;5089647;28;19912;-38
2021/07/25 08:57:14;;;;;;;;;;;;;;;36.17;22.44;99814.03;5089539;28;19913;-37
2021/07/25 08:59:41;;;;;;;;;;;;;;;36.16;22.87;99819.94;5093413;28;19965;-37
2021/07/25 09:02:06;;;;;;;;;;;;;;;34.89;23.08;99826.53;5093338;28;20003;-38
2021/07/25 09:04:31;;;;;;;;;;;;;;;34.76;23.01;99823.91;5091897;28;20006;-37
2021/07/25 09:06:57;;;;;;;;;;;;;;;35.19;23.27;99821.19;5093231;28;19998;-38
2021/07/25 09:09:22;;;;;;;;;;;;;;;36.50;21.46;99814.44;5093346;28;19912;-38
2021/07/25 09:11:48;;;;;;;;;;;;;;;36.13;21.62;99818.69;5093546;28;19916;-38
2021/07/25 09:14:13;;;;;;;;;;;;;;;35.27;23.11;99833.94;5093098;28;20448;-38
2021/07/25 09:16:38;;;;;;;;;;;;;;;35.49;23.06;99823.25;5093225;28;19916;-38
2021/07/25 09:19:04;;;;;;;;;;;;;;;34.80;22.93;99822.00;5093093;28;20311;-37
2021/07/25 09:21:35;;;;;;;;;;;;;;;35.66;22.23;99821.94;5093358;28;20368;-36
2021/07/25 09:24:16;;;;;;;;;;;;;;;34.79;23.07;99822.38;5093219;28;19912;-37
2021/07/25 09:26:48;;;;;;;;;;;;;;;33.92;24.20;99825.22;5092902;28;19916;-38
2021/07/25 09:29:20;;;;;;;;;;;;;;;34.53;23.33;99814.72;5093140;28;19927;-39
2021/07/25 09:31:45;;;;;;;;;;;;;;;34.74;23.39;99814.38;5093006;28;20023;-39
2021/07/25 09:34:10;;;;;;;;;;;;;;;34.94;23.28;99813.19;5091437;28;20021;-37
2021/07/25 09:36:37;;;;;;;;;;;;;;;34.51;22.79;99830.88;5092458;28;20018;-37
2021/07/25 09:39:04;;;;;;;;;;;;;;;34.62;23.54;99813.34;5092790;28;20037;-39
2021/07/25 09:41:30;;;;;;;;;;;;;;;34.96;23.22;99807.31;5092921;28;19912;-38
2021/07/25 09:43:59;;;;;;;;;;;;;;;35.18;22.73;99805.75;5102573;28;20284;-38
2021/07/25 09:46:24;;;;;;;;;;;;;;;35.45;22.66;99801.06;5113165;28;19999;-38
2021/07/25 09:48:56;;;;;;;;;;;;;;;35.29;23.46;99803.97;5113438;28;19951;-38
2021/07/25 09:51:22;;;;;;;;;;;;;;;35.15;23.20;99807.25;5099741;28;19971;-38
2021/07/25 09:53:48;;;;;;;;;;;;;;;35.38;22.71;99800.97;5092781;28;20315;-51
2021/07/25 09:56:18;;;;;;;;;;;;;;;35.47;22.32;99795.16;5092615;28;20406;-51
2021/07/25 09:58:44;;;;;;;;;;;;;;;35.15;22.61;99798.97;5092346;28;20009;-51
2021/07/25 10:01:10;;;;;;;;;;;;;;;34.86;22.98;99789.34;5092646;28;19923;-49
2021/07/25 10:03:35;;;;;;;;;;;;;;;34.28;23.29;99798.44;5092709;28;19916;-50
2021/07/25 10:06:19;;;;;;;;;;;;;;;34.23;23.28;99791.25;5090618;28;19916;-51
2021/07/25 10:08:44;;;;;;;;;;;;;;;34.68;22.79;99785.47;5085693;28;20007;-52
2021/07/25 10:11:16;;;;;;;;;;;;;;;35.14;22.95;99771.69;5071109;28;19999;-51
2021/07/25 10:13:41;;;;;;;;;;;;;;;35.65;22.33;99782.41;5071284;28;19912;-49
2021/07/25 10:16:07;;;;;;;;;;;;;;;35.51;22.24;99765.56;5071062;28;19917;-50
2021/07/25 10:18:32;;;;;;;;;;;;;;;34.94;22.75;99777.28;5071335;28;19975;-51
2021/07/25 10:20:58;;;;;;;;;;;;;;;34.38;23.07;99761.16;5070415;28;20328;-50
2021/07/25 10:23:34;;;;;;;;;;;;;;;34.24;23.43;99767.19;5071996;28;20000;-51
2021/07/25 10:26:00;;;;;;;;;;;;;;;33.77;24.22;99770.88;5071553;28;19913;-49
2021/07/25 10:28:26;;;;;;;;;;;;;;;34.16;24.20;99766.25;5072092;28;19912;-49
2021/07/25 10:30:51;;;;;;;;;;;;;;;34.36;23.29;99757.97;5070144;28;19916;-48
2021/07/25 10:33:17;;;;;;;;;;;;;;;34.44;23.44;99757.75;5071652;28;20019;-50
2021/07/25 10:35:43;;;;;;;;;;;;;;;33.81;24.42;99757.97;5070081;28;19924;-48
2021/07/25 10:38:08;;;;;;;;;;;;;;;33.99;23.79;99755.59;5071360;28;19912;-50
2021/07/25 10:40:35;;;;;;;;;;;;;;;33.88;23.62;99761.69;5071328;28;19912;-51
2021/07/25 10:43:01;;;;;;;;;;;;;;;33.48;23.99;99751.66;5074336;28;20004;-49
2021/07/25 10:45:26;;;;;;;;;;;;;;;33.71;24.22;99751.03;5110690;28;19964;-51
2021/07/25 10:47:52;;;;;;;;;;;;;;;34.16;24.08;99746.94;5111944;28;19919;-49
2021/07/25 10:50:18;;;;;;;;;;;;;;;34.36;24.16;99746.91;5110466;28;20087;-49
2021/07/25 10:52:50;;;;;;;;;;;;;;;34.45;23.84;99737.25;5111846;28;19977;-49
2021/07/25 10:55:33;;;;;;;;;;;;;;;34.33;23.11;99753.16;5112103;28;19992;-50
2021/07/25 10:57:59;;;;;;;;;;;;;;;33.99;23.72;99737.06;5111832;28;20295;-48
2021/07/25 11:00:40;;;;;;;;;;;;;;;34.21;23.34;99749.38;5111943;28;19912;-51
2021/07/25 11:03:06;;;;;;;;;;;;;;;34.23;22.99;99743.50;5111621;28;19911;-49
2021/07/25 11:05:31;;;;;;;;;;;;;;;34.19;22.64;99739.88;5111915;28;19919;-51
2021/07/25 11:07:57;;;;;;;;;;;;;;;34.04;23.30;99738.75;5111564;28;19912;-48
2021/07/25 11:10:32;;;;;;;;;;;;;;;34.09;22.86;99735.69;5110672;28;20028;-49
2021/07/25 11:12:57;;;;;;;;;;;;;;;33.72;23.59;99736.09;5111583;28;19959;-50
2021/07/25 11:15:31;;;;;;;;;;;;;;;34.04;23.53;99727.69;5111628;28;19963;-49
2021/07/25 11:18:01;;;;;;;;;;;;;;;34.46;22.73;99732.50;5110513;28;19959;-49
2021/07/25 11:20:36;;;;;;;;;;;;;;;34.41;22.61;99730.06;5110985;28;19924;-50
2021/07/25 11:23:06;;;;;;;;;;;;;;;34.25;23.02;99725.44;5111420;28;19912;-48
2021/07/25 11:25:37;;;;;;;;;;;;;;;34.53;23.08;99724.38;5111539;28;19919;-49
2021/07/25 11:28:06;;;;;;;;;;;;;;;34.50;22.53;99724.28;5111613;28;20376;-49
2021/07/25 11:30:53;;;;;;;;;;;;;;;34.47;22.48;99717.56;5111609;28;19922;-49
2021/07/25 11:33:36;;;;;;;;;;;;;;;34.84;21.50;99715.13;5111673;28;20255;-49
2021/07/25 11:36:02;;;;;;;;;;;;;;;33.37;23.58;99716.72;5111569;28;20418;-49
2021/07/25 11:38:27;;;;;;;;;;;;;;;33.64;23.32;99703.97;5111493;28;20008;-50
2021/07/25 11:40:53;;;;;;;;;;;;;;;34.56;22.31;99704.31;5110317;28;19912;-51
2021/07/25 11:43:18;;;;;;;;;;;;;;;35.02;21.93;99698.03;5111252;28;19915;-49
2021/07/25 11:45:44;;;;;;;;;;;;;;;34.61;22.53;99704.00;5111093;28;19969;-50
2021/07/25 11:48:18;;;;;;;;;;;;;;;34.89;22.17;99702.94;5110779;28;19946;-48
2021/07/25 11:50:43;;;;;;;;;;;;;;;35.53;20.73;99699.59;5110962;28;19965;-50
2021/07/25 11:53:09;;;;;;;;;;;;;;;34.89;21.45;99700.19;5111369;28;20211;-50
2021/07/25 11:55:34;;;;;;;;;;;;;;;35.28;21.27;99696.47;5111207;28;19933;-50
2021/07/25 11:58:09;;;;;;;;;;;;;;;35.77;21.38;99695.63;5111151;28;20014;-49
2021/07/25 12:00:34;;;;;;;;;;;;;;;36.03;20.43;99692.00;5111192;28;19985;-51
2021/07/25 12:02:59;;;;;;;;;;;;;;;35.53;20.71;99694.06;5111021;28;20363;-50
2021/07/25 12:05:26;;;;;;;;;;;;;;;35.69;20.57;99688.41;5110600;28;19912;-51
2021/07/25 12:07:51;;;;;;;;;;;;;;;35.80;20.42;99689.34;5110922;28;19912;-50
2021/07/25 12:10:26;;;;;;;;;;;;;;;35.66;19.90;99695.44;5110989;28;20256;-50
2021/07/25 12:12:52;;;;;;;;;;;;;;;35.19;20.54;99680.94;5111207;28;19911;-50
2021/07/25 12:15:19;;;;;;;;;;;;;;;34.58;21.34;99684.63;5109358;28;19987;-50
2021/07/25 12:17:49;;;;;;;;;;;;;;;34.94;21.35;99675.00;5110964;28;19971;-50
2021/07/25 12:20:18;;;;;;;;;;;;;;;34.06;21.55;99675.69;5110738;28;19923;-50
2021/07/25 12:22:56;;;;;;;;;;;;;;;34.06;21.66;99678.44;5110729;28;19912;-49
2021/07/25 12:25:21;;;;;;;;;;;;;;;34.51;21.38;99663.16;5110970;28;19912;-50
2021/07/25 12:28:00;;;;;;;;;;;;;;;34.87;20.77;99668.56;5110754;28;20327;-51
2021/07/25 12:30:25;;;;;;;;;;;;;;;34.85;20.78;99666.16;5109279;28;19916;-51
2021/07/25 12:32:50;;;;;;;;;;;;;;;34.87;20.71;99663.81;5113368;28;20011;-50
2021/07/25 12:35:17;;;;;;;;;;;;;;;35.34;20.13;99665.38;5114779;28;19912;-49
2021/07/25 12:37:55;;;;;;;;;;;;;;;35.84;19.64;99668.03;5114673;28;19912;-48
2021/07/25 12:40:25;;;;;;;;;;;;;;;36.01;19.58;99663.91;5114513;28;19943;-48
2021/07/25 12:42:56;;;;;;;;;;;;;;;35.94;20.28;99659.06;5114632;28;20003;-48
2021/07/25 12:45:22;;;;;;;;;;;;;;;35.64;20.22;99656.28;5114536;28;20298;-51
2021/07/25 12:47:47;;;;;;;;;;;;;;;35.57;19.93;99656.22;5114378;28;20576;-51